Aktualna pogoda na lotniskach (dane METAR)

 

EPGD - Gdansk/Rebiechow, Poland
Distance from station: ENE 44km
Updated: Wed, 21-Feb-2018 22:00 CET
Few Clouds
Few Clouds
 Wind from NNW
Wiatr: NNW 7 km/h
Temperatura: -5°C
Indeks Wychł.: -8°C
Punkt Rosy: -7°C
Wilgotność: 86%
Ciśnienie: 1025 hPa
Zachmurzenie: Few Clouds
Widzialność: 8 km
Szczegóły zachm.: Few Clouds 305 m
2018/02/21 21:00 EPGD 212100Z 33004KT 8000 FEW010 M05/M07 Q1025 R11/290095
EPSC - Szczecin/Golenio, Poland
Distance from station: WSW 205km
Updated: Wed, 21-Feb-2018 22:00 CET
Clear
Clear
 Wind from NE
Wiatr: NE 7 km/h
Temperatura: -2°C
Indeks Wychł.: -6°C
Punkt Rosy: -3°C
Wilgotność: 93%
Ciśnienie: 1027 hPa
Ogólnie: Clear
Widzialność: greater than 10 km
2018/02/21 21:00 EPSC 212100Z 04004KT CAVOK M02/M03 Q1027
 
EPPO - Poznan/Lawica, Poland
Distance from station: SSW 210km
Updated: Wed, 21-Feb-2018 22:00 CET
Clear
Clear
 Wind from ENE
Wiatr: ENE 6 km/h
Temperatura: -5°C
Punkt Rosy: -7°C
Wilgotność: 86%
Ciśnienie: 1026 hPa
Ogólnie: Clear
Widzialność: greater than 10 km
2018/02/21 21:00 EPPO 212100Z 06003KT CAVOK M05/M07 Q1026 R10/19//95
EPLL - Lodz/Lublinek, Poland
Distance from station: SSE 296km
Updated: Wed, 21-Feb-2018 22:00 CET
Clear
Clear
 Wind from NE
Wiatr: NE 15 km/h
Temperatura: -3°C
Indeks Wychł.: -8°C
Punkt Rosy: -8°C
Wilgotność: 69%
Ciśnienie: 1024 hPa
Ogólnie: Clear
Widzialność: greater than 10 km
2018/02/21 21:00 EPLL 212100Z 05008KT 020V080 CAVOK M03/M08 Q1024
 
EPWA - Warsaw/Okecie, Poland
Distance from station: SE 307km
Updated: Wed, 21-Feb-2018 22:00 CET
Clear
Clear
 Wind from ENE
Wiatr: ENE 13 km/h
Temperatura: -4°C
Indeks Wychł.: -9°C
Punkt Rosy: -8°C
Wilgotność: 74%
Ciśnienie: 1025 hPa
Ogólnie: Clear
Widzialność: greater than 10 km
2018/02/21 21:00 EPWA 212100Z 06007KT 020V080 CAVOK M04/M08 Q1025 NOSIG
EPWR - Wroclaw/Strachow, Poland
Distance from station: S 352km
Updated: Wed, 21-Feb-2018 22:00 CET
Partly Cloudy
Partly Cloudy
 Wind from NNE
Wiatr: NNE 7 km/h
Temperatura: -3°C
Indeks Wychł.: -6°C
Punkt Rosy: -6°C
Wilgotność: 80%
Ciśnienie: 1024 hPa
Zachmurzenie: Partly Cloudy
Widzialność: 6 km
2018/02/21 21:00 EPWR 212100Z 02004KT 6000 NSC M03/M06 Q1024

Metar display script from Saratoga-Weather.org